sensor_id;sensor_type;location;lat;lon;timestamp;P1;durP1;ratioP1;P2;durP2;ratioP2
54005;SDS011;39919;38.160;-122.260;2023-02-27T00:01:02;1.35;;;0.05;;
54005;SDS011;39919;38.160;-122.260;2023-02-27T00:03:31;2.47;;;0.10;;
54005;SDS011;39919;38.160;-122.260;2023-02-27T00:06:02;1.98;;;0.10;;
54005;SDS011;39919;38.160;-122.260;2023-02-27T00:08:35;6.25;;;0.10;;
54005;SDS011;39919;38.160;-122.260;2023-02-27T00:11:04;1.60;;;0.10;;
54005;SDS011;39919;38.160;-122.260;2023-02-27T00:13:33;3.78;;;0.20;;
54005;SDS011;39919;38.160;-122.260;2023-02-27T00:16:03;2.85;;;0.10;;
54005;SDS011;39919;38.160;-122.260;2023-02-27T00:18:33;4.13;;;0.10;;
54005;SDS011;39919;38.160;-122.260;2023-02-27T00:21:04;2.03;;;0.10;;
54005;SDS011;39919;38.160;-122.260;2023-02-27T00:23:33;5.93;;;0.30;;
54005;SDS011;39919;38.160;-122.260;2023-02-27T00:26:02;3.53;;;0.20;;
54005;SDS011;39919;38.160;-122.260;2023-02-27T00:28:31;6.07;;;0.20;;
54005;SDS011;39919;38.160;-122.260;2023-02-27T00:31:01;3.63;;;0.20;;
54005;SDS011;39919;38.160;-122.260;2023-02-27T00:33:30;3.03;;;0.10;;
54005;SDS011;39919;38.160;-122.260;2023-02-27T00:35:59;4.07;;;0.20;;
54005;SDS011;39919;38.160;-122.260;2023-02-27T00:38:30;3.40;;;0.20;;
54005;SDS011;39919;38.160;-122.260;2023-02-27T00:41:00;2.95;;;0.20;;
54005;SDS011;39919;38.160;-122.260;2023-02-27T00:43:29;3.35;;;0.17;;
54005;SDS011;39919;38.160;-122.260;2023-02-27T00:45:58;2.42;;;0.20;;
54005;SDS011;39919;38.160;-122.260;2023-02-27T00:48:29;3.83;;;0.00;;
54005;SDS011;39919;38.160;-122.260;2023-02-27T00:50:58;0.90;;;0.00;;
54005;SDS011;39919;38.160;-122.260;2023-02-27T00:53:27;2.72;;;0.00;;
54005;SDS011;39919;38.160;-122.260;2023-02-27T00:55:58;1.85;;;0.10;;
54005;SDS011;39919;38.160;-122.260;2023-02-27T00:58:27;5.55;;;0.50;;
54005;SDS011;39919;38.160;-122.260;2023-02-27T01:00:58;3.15;;;0.10;;
54005;SDS011;39919;38.160;-122.260;2023-02-27T01:03:28;1.13;;;0.40;;
54005;SDS011;39919;38.160;-122.260;2023-02-27T01:05:57;0.35;;;0.08;;
54005;SDS011;39919;38.160;-122.260;2023-02-27T01:08:34;5.50;;;0.43;;
54005;SDS011;39919;38.160;-122.260;2023-02-27T01:11:03;1.55;;;0.10;;
54005;SDS011;39919;38.160;-122.260;2023-02-27T01:13:35;1.75;;;0.10;;
54005;SDS011;39919;38.160;-122.260;2023-02-27T01:16:05;3.83;;;0.10;;
54005;SDS011;39919;38.160;-122.260;2023-02-27T01:18:35;3.50;;;0.30;;
54005;SDS011;39919;38.160;-122.260;2023-02-27T01:21:04;3.97;;;0.10;;
54005;SDS011;39919;38.160;-122.260;2023-02-27T01:23:38;4.22;;;0.40;;
54005;SDS011;39919;38.160;-122.260;2023-02-27T01:26:07;2.50;;;0.13;;
54005;SDS011;39919;38.160;-122.260;2023-02-27T01:28:36;3.58;;;0.28;;
54005;SDS011;39919;38.160;-122.260;2023-02-27T01:31:05;3.08;;;0.10;;
54005;SDS011;39919;38.160;-122.260;2023-02-27T01:33:38;0.47;;;0.10;;
54005;SDS011;39919;38.160;-122.260;2023-02-27T01:36:29;3.90;;;0.22;;
54005;SDS011;39919;38.160;-122.260;2023-02-27T01:39:00;8.95;;;0.30;;
54005;SDS011;39919;38.160;-122.260;2023-02-27T01:41:29;5.85;;;0.10;;
54005;SDS011;39919;38.160;-122.260;2023-02-27T01:43:59;7.63;;;0.28;;
54005;SDS011;39919;38.160;-122.260;2023-02-27T01:46:29;9.18;;;0.60;;
54005;SDS011;39919;38.160;-122.260;2023-02-27T01:49:00;12.50;;;0.88;;
54005;SDS011;39919;38.160;-122.260;2023-02-27T01:51:33;5.15;;;0.88;;
54005;SDS011;39919;38.160;-122.260;2023-02-27T01:54:08;5.28;;;0.43;;
54005;SDS011;39919;38.160;-122.260;2023-02-27T01:56:43;9.82;;;0.70;;
54005;SDS011;39919;38.160;-122.260;2023-02-27T01:59:13;7.70;;;0.80;;
54005;SDS011;39919;38.160;-122.260;2023-02-27T02:01:45;3.15;;;0.50;;
54005;SDS011;39919;38.160;-122.260;2023-02-27T02:04:18;6.55;;;0.40;;
54005;SDS011;39919;38.160;-122.260;2023-02-27T02:06:55;6.25;;;0.40;;
54005;SDS011;39919;38.160;-122.260;2023-02-27T02:09:29;3.53;;;0.22;;
54005;SDS011;39919;38.160;-122.260;2023-02-27T02:12:01;7.00;;;0.60;;
54005;SDS011;39919;38.160;-122.260;2023-02-27T02:14:32;2.95;;;0.30;;
54005;SDS011;39919;38.160;-122.260;2023-02-27T02:17:07;4.53;;;0.20;;
54005;SDS011;39919;38.160;-122.260;2023-02-27T02:19:52;3.17;;;0.13;;
54005;SDS011;39919;38.160;-122.260;2023-02-27T02:28:54;3.92;;;0.10;;
54005;SDS011;39919;38.160;-122.260;2023-02-27T02:34:51;2.22;;;0.13;;
54005;SDS011;39919;38.160;-122.260;2023-02-27T02:40:48;3.30;;;0.20;;
54005;SDS011;39919;38.160;-122.260;2023-02-27T02:43:24;7.38;;;0.35;;
54005;SDS011;39919;38.160;-122.260;2023-02-27T02:46:05;5.95;;;0.50;;
54005;SDS011;39919;38.160;-122.260;2023-02-27T02:48:40;7.28;;;0.22;;
54005;SDS011;39919;38.160;-122.260;2023-02-27T02:51:15;5.35;;;0.60;;
54005;SDS011;39919;38.160;-122.260;2023-02-27T02:53:52;2.78;;;0.30;;
54005;SDS011;39919;38.160;-122.260;2023-02-27T02:56:31;6.93;;;0.30;;
54005;SDS011;39919;38.160;-122.260;2023-02-27T02:59:05;6.95;;;0.28;;
54005;SDS011;39919;38.160;-122.260;2023-02-27T03:01:39;5.03;;;0.35;;
54005;SDS011;39919;38.160;-122.260;2023-02-27T03:04:13;8.45;;;0.50;;
54005;SDS011;39919;38.160;-122.260;2023-02-27T03:06:47;5.60;;;0.30;;
54005;SDS011;39919;38.160;-122.260;2023-02-27T03:09:23;4.63;;;0.30;;
54005;SDS011;39919;38.160;-122.260;2023-02-27T03:11:59;4.97;;;0.40;;
54005;SDS011;39919;38.160;-122.260;2023-02-27T03:14:33;5.60;;;0.30;;
54005;SDS011;39919;38.160;-122.260;2023-02-27T03:17:14;3.47;;;0.75;;
54005;SDS011;39919;38.160;-122.260;2023-02-27T03:19:51;6.93;;;1.10;;
54005;SDS011;39919;38.160;-122.260;2023-02-27T03:22:29;8.43;;;1.27;;
54005;SDS011;39919;38.160;-122.260;2023-02-27T03:25:04;12.23;;;2.22;;
54005;SDS011;39919;38.160;-122.260;2023-02-27T03:27:38;11.60;;;2.03;;
54005;SDS011;39919;38.160;-122.260;2023-02-27T03:30:11;13.10;;;3.05;;
54005;SDS011;39919;38.160;-122.260;2023-02-27T03:32:46;10.20;;;2.05;;
54005;SDS011;39919;38.160;-122.260;2023-02-27T03:35:27;14.02;;;1.33;;
54005;SDS011;39919;38.160;-122.260;2023-02-27T03:38:05;8.75;;;3.08;;
54005;SDS011;39919;38.160;-122.260;2023-02-27T03:40:43;15.02;;;1.50;;
54005;SDS011;39919;38.160;-122.260;2023-02-27T03:43:23;10.48;;;1.60;;
54005;SDS011;39919;38.160;-122.260;2023-02-27T03:45:59;14.65;;;2.05;;
54005;SDS011;39919;38.160;-122.260;2023-02-27T03:48:35;10.68;;;1.80;;
54005;SDS011;39919;38.160;-122.260;2023-02-27T03:51:09;8.68;;;1.60;;
54005;SDS011;39919;38.160;-122.260;2023-02-27T03:53:44;26.13;;;2.90;;
54005;SDS011;39919;38.160;-122.260;2023-02-27T03:56:18;11.55;;;0.80;;
54005;SDS011;39919;38.160;-122.260;2023-02-27T03:58:54;9.48;;;0.45;;
54005;SDS011;39919;38.160;-122.260;2023-02-27T04:01:23;14.85;;;1.35;;
54005;SDS011;39919;38.160;-122.260;2023-02-27T04:03:53;8.10;;;1.38;;
54005;SDS011;39919;38.160;-122.260;2023-02-27T04:06:26;10.35;;;1.30;;
54005;SDS011;39919;38.160;-122.260;2023-02-27T04:09:15;3.97;;;0.43;;
54005;SDS011;39919;38.160;-122.260;2023-02-27T04:12:01;8.75;;;1.35;;
54005;SDS011;39919;38.160;-122.260;2023-02-27T04:14:48;9.02;;;0.80;;
54005;SDS011;39919;38.160;-122.260;2023-02-27T04:17:24;12.75;;;1.23;;
54005;SDS011;39919;38.160;-122.260;2023-02-27T04:20:09;12.65;;;1.20;;
54005;SDS011;39919;38.160;-122.260;2023-02-27T04:22:48;8.27;;;0.93;;
54005;SDS011;39919;38.160;-122.260;2023-02-27T04:25:23;10.35;;;0.70;;
54005;SDS011;39919;38.160;-122.260;2023-02-27T04:28:08;5.13;;;0.77;;
54005;SDS011;39919;38.160;-122.260;2023-02-27T04:30:54;12.20;;;1.05;;
54005;SDS011;39919;38.160;-122.260;2023-02-27T04:33:32;10.00;;;0.88;;
54005;SDS011;39919;38.160;-122.260;2023-02-27T04:36:11;16.40;;;2.00;;
54005;SDS011;39919;38.160;-122.260;2023-02-27T04:38:44;13.90;;;2.65;;
54005;SDS011;39919;38.160;-122.260;2023-02-27T04:41:19;11.38;;;1.80;;
54005;SDS011;39919;38.160;-122.260;2023-02-27T04:43:51;9.20;;;1.20;;
54005;SDS011;39919;38.160;-122.260;2023-02-27T04:46:23;11.43;;;0.80;;
54005;SDS011;39919;38.160;-122.260;2023-02-27T04:48:57;14.15;;;1.35;;
54005;SDS011;39919;38.160;-122.260;2023-02-27T04:51:31;12.05;;;2.10;;
54005;SDS011;39919;38.160;-122.260;2023-02-27T04:54:05;10.93;;;0.80;;
54005;SDS011;39919;38.160;-122.260;2023-02-27T04:56:38;13.85;;;0.80;;
54005;SDS011;39919;38.160;-122.260;2023-02-27T04:59:12;13.70;;;0.90;;
54005;SDS011;39919;38.160;-122.260;2023-02-27T05:01:46;9.05;;;0.88;;
54005;SDS011;39919;38.160;-122.260;2023-02-27T05:04:20;12.70;;;1.58;;
54005;SDS011;39919;38.160;-122.260;2023-02-27T05:06:51;16.38;;;1.25;;
54005;SDS011;39919;38.160;-122.260;2023-02-27T05:09:25;14.90;;;1.35;;
54005;SDS011;39919;38.160;-122.260;2023-02-27T05:12:00;8.57;;;0.80;;
54005;SDS011;39919;38.160;-122.260;2023-02-27T05:14:32;12.02;;;0.85;;
54005;SDS011;39919;38.160;-122.260;2023-02-27T05:17:09;12.18;;;0.95;;
54005;SDS011;39919;38.160;-122.260;2023-02-27T05:19:42;18.35;;;1.95;;
54005;SDS011;39919;38.160;-122.260;2023-02-27T05:22:15;13.95;;;1.40;;
54005;SDS011;39919;38.160;-122.260;2023-02-27T05:24:52;16.17;;;1.23;;
54005;SDS011;39919;38.160;-122.260;2023-02-27T05:27:29;8.85;;;1.33;;
54005;SDS011;39919;38.160;-122.260;2023-02-27T05:30:04;14.85;;;1.88;;
54005;SDS011;39919;38.160;-122.260;2023-02-27T05:32:41;10.25;;;1.10;;
54005;SDS011;39919;38.160;-122.260;2023-02-27T05:35:13;13.85;;;1.48;;
54005;SDS011;39919;38.160;-122.260;2023-02-27T05:37:48;14.57;;;1.38;;
54005;SDS011;39919;38.160;-122.260;2023-02-27T05:40:21;12.55;;;1.50;;
54005;SDS011;39919;38.160;-122.260;2023-02-27T05:42:55;12.38;;;1.08;;
54005;SDS011;39919;38.160;-122.260;2023-02-27T05:45:28;22.15;;;1.25;;
54005;SDS011;39919;38.160;-122.260;2023-02-27T05:48:02;16.10;;;1.38;;
54005;SDS011;39919;38.160;-122.260;2023-02-27T05:50:38;9.32;;;0.60;;
54005;SDS011;39919;38.160;-122.260;2023-02-27T05:53:09;11.52;;;1.05;;
54005;SDS011;39919;38.160;-122.260;2023-02-27T05:55:42;6.40;;;0.55;;
54005;SDS011;39919;38.160;-122.260;2023-02-27T05:58:15;5.65;;;0.77;;
54005;SDS011;39919;38.160;-122.260;2023-02-27T06:00:48;8.88;;;0.52;;
54005;SDS011;39919;38.160;-122.260;2023-02-27T06:03:22;12.85;;;1.30;;
54005;SDS011;39919;38.160;-122.260;2023-02-27T06:05:52;8.10;;;0.65;;
54005;SDS011;39919;38.160;-122.260;2023-02-27T06:08:22;11.60;;;1.40;;
54005;SDS011;39919;38.160;-122.260;2023-02-27T06:10:53;14.02;;;1.65;;
54005;SDS011;39919;38.160;-122.260;2023-02-27T06:13:22;19.13;;;1.30;;
54005;SDS011;39919;38.160;-122.260;2023-02-27T06:15:52;11.60;;;0.73;;
54005;SDS011;39919;38.160;-122.260;2023-02-27T06:18:23;13.43;;;1.27;;
54005;SDS011;39919;38.160;-122.260;2023-02-27T06:20:52;16.85;;;1.58;;
54005;SDS011;39919;38.160;-122.260;2023-02-27T06:23:22;12.90;;;1.20;;
54005;SDS011;39919;38.160;-122.260;2023-02-27T06:25:51;21.50;;;2.35;;
54005;SDS011;39919;38.160;-122.260;2023-02-27T06:28:20;11.27;;;0.70;;
54005;SDS011;39919;38.160;-122.260;2023-02-27T06:30:51;12.93;;;1.50;;
54005;SDS011;39919;38.160;-122.260;2023-02-27T06:33:23;9.80;;;0.73;;
54005;SDS011;39919;38.160;-122.260;2023-02-27T06:35:52;11.57;;;0.90;;
54005;SDS011;39919;38.160;-122.260;2023-02-27T06:38:21;8.93;;;1.35;;
54005;SDS011;39919;38.160;-122.260;2023-02-27T06:40:50;12.45;;;0.50;;
54005;SDS011;39919;38.160;-122.260;2023-02-27T06:43:20;5.95;;;0.95;;
54005;SDS011;39919;38.160;-122.260;2023-02-27T06:45:51;9.68;;;0.73;;
54005;SDS011;39919;38.160;-122.260;2023-02-27T06:48:21;15.35;;;0.88;;
54005;SDS011;39919;38.160;-122.260;2023-02-27T06:50:52;5.47;;;0.80;;
54005;SDS011;39919;38.160;-122.260;2023-02-27T06:53:21;4.93;;;0.50;;
54005;SDS011;39919;38.160;-122.260;2023-02-27T06:55:51;9.63;;;0.68;;
54005;SDS011;39919;38.160;-122.260;2023-02-27T06:58:20;10.85;;;1.20;;
54005;SDS011;39919;38.160;-122.260;2023-02-27T07:00:49;16.00;;;1.08;;
54005;SDS011;39919;38.160;-122.260;2023-02-27T07:03:19;9.98;;;0.85;;
54005;SDS011;39919;38.160;-122.260;2023-02-27T07:05:49;7.03;;;0.70;;
54005;SDS011;39919;38.160;-122.260;2023-02-27T07:08:18;12.05;;;1.10;;
54005;SDS011;39919;38.160;-122.260;2023-02-27T07:10:48;10.88;;;0.77;;
54005;SDS011;39919;38.160;-122.260;2023-02-27T07:13:17;10.25;;;0.98;;
54005;SDS011;39919;38.160;-122.260;2023-02-27T07:15:46;14.38;;;1.20;;
54005;SDS011;39919;38.160;-122.260;2023-02-27T07:18:16;18.70;;;1.65;;
54005;SDS011;39919;38.160;-122.260;2023-02-27T07:20:50;10.63;;;0.40;;
54005;SDS011;39919;38.160;-122.260;2023-02-27T07:23:20;8.75;;;0.60;;
54005;SDS011;39919;38.160;-122.260;2023-02-27T07:25:49;7.60;;;0.88;;
54005;SDS011;39919;38.160;-122.260;2023-02-27T07:28:18;7.20;;;0.60;;
54005;SDS011;39919;38.160;-122.260;2023-02-27T07:31:01;9.20;;;0.70;;
54005;SDS011;39919;38.160;-122.260;2023-02-27T07:33:31;6.47;;;0.63;;
54005;SDS011;39919;38.160;-122.260;2023-02-27T07:36:02;7.60;;;0.50;;
54005;SDS011;39919;38.160;-122.260;2023-02-27T07:41:00;10.48;;;0.70;;
54005;SDS011;39919;38.160;-122.260;2023-02-27T07:43:29;11.07;;;1.02;;
54005;SDS011;39919;38.160;-122.260;2023-02-27T07:45:58;10.30;;;1.08;;
54005;SDS011;39919;38.160;-122.260;2023-02-27T07:48:28;6.63;;;0.60;;
54005;SDS011;39919;38.160;-122.260;2023-02-27T07:50:57;10.18;;;1.48;;
54005;SDS011;39919;38.160;-122.260;2023-02-27T07:53:28;11.95;;;0.60;;
54005;SDS011;39919;38.160;-122.260;2023-02-27T07:55:58;7.43;;;0.60;;
54005;SDS011;39919;38.160;-122.260;2023-02-27T07:58:27;9.82;;;0.60;;
54005;SDS011;39919;38.160;-122.260;2023-02-27T08:00:56;5.72;;;0.65;;
54005;SDS011;39919;38.160;-122.260;2023-02-27T08:03:25;11.30;;;0.70;;
54005;SDS011;39919;38.160;-122.260;2023-02-27T08:05:54;6.75;;;0.32;;
54005;SDS011;39919;38.160;-122.260;2023-02-27T08:08:23;4.78;;;0.40;;
54005;SDS011;39919;38.160;-122.260;2023-02-27T08:10:54;9.45;;;0.47;;
54005;SDS011;39919;38.160;-122.260;2023-02-27T08:13:23;10.63;;;0.60;;
54005;SDS011;39919;38.160;-122.260;2023-02-27T08:15:53;7.25;;;0.40;;
54005;SDS011;39919;38.160;-122.260;2023-02-27T08:18:22;11.93;;;0.60;;
54005;SDS011;39919;38.160;-122.260;2023-02-27T08:20:53;5.47;;;0.57;;
54005;SDS011;39919;38.160;-122.260;2023-02-27T08:23:23;10.02;;;0.80;;
54005;SDS011;39919;38.160;-122.260;2023-02-27T08:25:52;7.45;;;0.85;;
54005;SDS011;39919;38.160;-122.260;2023-02-27T08:28:23;10.23;;;0.75;;
54005;SDS011;39919;38.160;-122.260;2023-02-27T08:30:53;9.43;;;0.70;;
54005;SDS011;39919;38.160;-122.260;2023-02-27T08:33:22;8.65;;;0.98;;
54005;SDS011;39919;38.160;-122.260;2023-02-27T08:35:51;3.60;;;0.32;;
54005;SDS011;39919;38.160;-122.260;2023-02-27T08:38:21;4.70;;;0.35;;
54005;SDS011;39919;38.160;-122.260;2023-02-27T08:40:50;5.28;;;0.50;;
54005;SDS011;39919;38.160;-122.260;2023-02-27T08:43:22;14.20;;;0.65;;
54005;SDS011;39919;38.160;-122.260;2023-02-27T08:45:51;10.70;;;1.70;;
54005;SDS011;39919;38.160;-122.260;2023-02-27T08:48:20;12.40;;;0.50;;
54005;SDS011;39919;38.160;-122.260;2023-02-27T08:50:49;16.23;;;1.73;;
54005;SDS011;39919;38.160;-122.260;2023-02-27T08:53:19;6.65;;;0.75;;
54005;SDS011;39919;38.160;-122.260;2023-02-27T08:55:48;9.57;;;0.98;;
54005;SDS011;39919;38.160;-122.260;2023-02-27T08:58:18;7.80;;;0.57;;
54005;SDS011;39919;38.160;-122.260;2023-02-27T09:00:49;11.90;;;1.23;;
54005;SDS011;39919;38.160;-122.260;2023-02-27T09:03:18;8.85;;;1.35;;
54005;SDS011;39919;38.160;-122.260;2023-02-27T09:05:47;15.52;;;1.98;;
54005;SDS011;39919;38.160;-122.260;2023-02-27T09:08:17;15.50;;;1.73;;
54005;SDS011;39919;38.160;-122.260;2023-02-27T09:10:46;11.07;;;1.17;;
54005;SDS011;39919;38.160;-122.260;2023-02-27T09:13:15;10.57;;;1.60;;
54005;SDS011;39919;38.160;-122.260;2023-02-27T09:15:46;12.18;;;1.45;;
54005;SDS011;39919;38.160;-122.260;2023-02-27T09:18:17;8.35;;;0.80;;
54005;SDS011;39919;38.160;-122.260;2023-02-27T09:20:47;7.60;;;1.05;;
54005;SDS011;39919;38.160;-122.260;2023-02-27T09:23:17;9.98;;;0.90;;
54005;SDS011;39919;38.160;-122.260;2023-02-27T09:25:46;11.32;;;1.13;;
54005;SDS011;39919;38.160;-122.260;2023-02-27T09:28:15;7.95;;;0.80;;
54005;SDS011;39919;38.160;-122.260;2023-02-27T09:30:46;10.05;;;1.38;;
54005;SDS011;39919;38.160;-122.260;2023-02-27T09:33:17;5.43;;;0.50;;
54005;SDS011;39919;38.160;-122.260;2023-02-27T09:35:46;8.35;;;0.68;;
54005;SDS011;39919;38.160;-122.260;2023-02-27T09:38:15;9.98;;;0.70;;
54005;SDS011;39919;38.160;-122.260;2023-02-27T09:40:44;10.45;;;0.85;;
54005;SDS011;39919;38.160;-122.260;2023-02-27T09:43:18;9.88;;;1.17;;
54005;SDS011;39919;38.160;-122.260;2023-02-27T09:45:51;8.48;;;1.02;;
54005;SDS011;39919;38.160;-122.260;2023-02-27T09:48:25;8.02;;;0.60;;
54005;SDS011;39919;38.160;-122.260;2023-02-27T09:50:57;5.18;;;0.95;;
54005;SDS011;39919;38.160;-122.260;2023-02-27T09:53:27;9.93;;;1.75;;
54005;SDS011;39919;38.160;-122.260;2023-02-27T09:56:02;9.13;;;1.65;;
54005;SDS011;39919;38.160;-122.260;2023-02-27T09:58:39;10.52;;;0.65;;
54005;SDS011;39919;38.160;-122.260;2023-02-27T10:01:14;8.57;;;0.73;;
54005;SDS011;39919;38.160;-122.260;2023-02-27T10:07:04;4.95;;;0.55;;
54005;SDS011;39919;38.160;-122.260;2023-02-27T10:09:41;7.95;;;0.70;;
54005;SDS011;39919;38.160;-122.260;2023-02-27T10:12:18;6.93;;;0.88;;
54005;SDS011;39919;38.160;-122.260;2023-02-27T10:14:59;6.35;;;0.50;;
54005;SDS011;39919;38.160;-122.260;2023-02-27T10:17:32;4.22;;;0.32;;
54005;SDS011;39919;38.160;-122.260;2023-02-27T10:20:06;3.80;;;0.45;;
54005;SDS011;39919;38.160;-122.260;2023-02-27T10:22:43;5.15;;;0.50;;
54005;SDS011;39919;38.160;-122.260;2023-02-27T10:25:15;5.10;;;0.77;;
54005;SDS011;39919;38.160;-122.260;2023-02-27T10:27:46;10.00;;;0.75;;
54005;SDS011;39919;38.160;-122.260;2023-02-27T10:30:19;1.95;;;0.50;;
54005;SDS011;39919;38.160;-122.260;2023-02-27T10:32:51;10.20;;;1.08;;
54005;SDS011;39919;38.160;-122.260;2023-02-27T10:35:27;10.32;;;1.25;;
54005;SDS011;39919;38.160;-122.260;2023-02-27T10:38:00;10.23;;;0.70;;
54005;SDS011;39919;38.160;-122.260;2023-02-27T10:40:32;10.27;;;0.95;;
54005;SDS011;39919;38.160;-122.260;2023-02-27T10:43:03;2.92;;;0.30;;
54005;SDS011;39919;38.160;-122.260;2023-02-27T10:45:33;3.67;;;0.45;;
54005;SDS011;39919;38.160;-122.260;2023-02-27T10:48:03;4.20;;;0.50;;
54005;SDS011;39919;38.160;-122.260;2023-02-27T10:50:34;8.73;;;0.60;;
54005;SDS011;39919;38.160;-122.260;2023-02-27T10:53:16;8.90;;;0.70;;
54005;SDS011;39919;38.160;-122.260;2023-02-27T10:55:47;6.88;;;0.85;;
54005;SDS011;39919;38.160;-122.260;2023-02-27T10:58:27;4.53;;;0.95;;
54005;SDS011;39919;38.160;-122.260;2023-02-27T11:00:59;7.38;;;1.02;;
54005;SDS011;39919;38.160;-122.260;2023-02-27T11:03:32;8.23;;;0.50;;
54005;SDS011;39919;38.160;-122.260;2023-02-27T11:06:04;5.90;;;0.50;;
54005;SDS011;39919;38.160;-122.260;2023-02-27T11:08:37;10.00;;;0.40;;
54005;SDS011;39919;38.160;-122.260;2023-02-27T11:11:07;9.60;;;0.65;;
54005;SDS011;39919;38.160;-122.260;2023-02-27T11:13:37;5.22;;;0.45;;
54005;SDS011;39919;38.160;-122.260;2023-02-27T11:16:11;13.10;;;0.65;;
54005;SDS011;39919;38.160;-122.260;2023-02-27T11:18:41;9.77;;;1.02;;
54005;SDS011;39919;38.160;-122.260;2023-02-27T11:21:13;11.88;;;1.13;;
54005;SDS011;39919;38.160;-122.260;2023-02-27T11:23:55;11.50;;;0.73;;
54005;SDS011;39919;38.160;-122.260;2023-02-27T11:26:27;9.60;;;1.13;;
54005;SDS011;39919;38.160;-122.260;2023-02-27T11:29:03;5.63;;;0.50;;
54005;SDS011;39919;38.160;-122.260;2023-02-27T11:31:43;5.10;;;0.60;;
54005;SDS011;39919;38.160;-122.260;2023-02-27T11:34:22;4.80;;;0.63;;
54005;SDS011;39919;38.160;-122.260;2023-02-27T11:36:54;11.02;;;1.30;;
54005;SDS011;39919;38.160;-122.260;2023-02-27T11:39:30;13.90;;;1.65;;
54005;SDS011;39919;38.160;-122.260;2023-02-27T11:42:07;8.65;;;0.55;;
54005;SDS011;39919;38.160;-122.260;2023-02-27T11:44:49;9.73;;;2.22;;
54005;SDS011;39919;38.160;-122.260;2023-02-27T11:47:22;7.78;;;0.85;;
54005;SDS011;39919;38.160;-122.260;2023-02-27T11:52:54;13.35;;;2.10;;
54005;SDS011;39919;38.160;-122.260;2023-02-27T11:55:29;13.93;;;0.70;;
54005;SDS011;39919;38.160;-122.260;2023-02-27T11:58:00;5.10;;;0.70;;
54005;SDS011;39919;38.160;-122.260;2023-02-27T12:00:38;13.85;;;0.93;;
54005;SDS011;39919;38.160;-122.260;2023-02-27T12:03:12;9.85;;;1.10;;
54005;SDS011;39919;38.160;-122.260;2023-02-27T12:05:48;8.05;;;0.57;;
54005;SDS011;39919;38.160;-122.260;2023-02-27T12:08:22;11.90;;;1.00;;
54005;SDS011;39919;38.160;-122.260;2023-02-27T12:11:00;10.27;;;1.63;;
54005;SDS011;39919;38.160;-122.260;2023-02-27T12:13:32;15.18;;;0.80;;
54005;SDS011;39919;38.160;-122.260;2023-02-27T12:16:06;13.32;;;0.60;;
54005;SDS011;39919;38.160;-122.260;2023-02-27T12:18:45;10.60;;;1.02;;
54005;SDS011;39919;38.160;-122.260;2023-02-27T12:21:18;7.35;;;1.02;;
54005;SDS011;39919;38.160;-122.260;2023-02-27T12:23:51;12.13;;;0.60;;
54005;SDS011;39919;38.160;-122.260;2023-02-27T12:26:25;9.13;;;0.85;;
54005;SDS011;39919;38.160;-122.260;2023-02-27T12:29:01;5.53;;;0.85;;
54005;SDS011;39919;38.160;-122.260;2023-02-27T12:31:39;7.80;;;0.63;;
54005;SDS011;39919;38.160;-122.260;2023-02-27T12:37:04;11.90;;;1.15;;
54005;SDS011;39919;38.160;-122.260;2023-02-27T12:39:36;9.50;;;0.70;;
54005;SDS011;39919;38.160;-122.260;2023-02-27T12:42:13;8.02;;;0.47;;
54005;SDS011;39919;38.160;-122.260;2023-02-27T12:45:16;7.40;;;0.50;;
54005;SDS011;39919;38.160;-122.260;2023-02-27T12:48:08;13.50;;;1.00;;
54005;SDS011;39919;38.160;-122.260;2023-02-27T12:50:49;10.85;;;0.80;;
54005;SDS011;39919;38.160;-122.260;2023-02-27T12:53:39;6.63;;;0.57;;
54005;SDS011;39919;38.160;-122.260;2023-02-27T12:56:22;4.28;;;0.70;;
54005;SDS011;39919;38.160;-122.260;2023-02-27T12:59:02;5.93;;;0.88;;
54005;SDS011;39919;38.160;-122.260;2023-02-27T13:01:42;9.70;;;0.50;;
54005;SDS011;39919;38.160;-122.260;2023-02-27T13:04:17;4.82;;;0.90;;
54005;SDS011;39919;38.160;-122.260;2023-02-27T13:06:53;10.70;;;2.88;;
54005;SDS011;39919;38.160;-122.260;2023-02-27T13:09:31;12.43;;;3.08;;
54005;SDS011;39919;38.160;-122.260;2023-02-27T13:12:07;9.63;;;1.67;;
54005;SDS011;39919;38.160;-122.260;2023-02-27T13:14:47;10.80;;;2.92;;
54005;SDS011;39919;38.160;-122.260;2023-02-27T13:17:22;11.98;;;2.63;;
54005;SDS011;39919;38.160;-122.260;2023-02-27T13:19:54;14.40;;;2.08;;
54005;SDS011;39919;38.160;-122.260;2023-02-27T13:22:31;9.02;;;1.02;;
54005;SDS011;39919;38.160;-122.260;2023-02-27T13:25:14;14.68;;;1.35;;
54005;SDS011;39919;38.160;-122.260;2023-02-27T13:27:44;10.63;;;1.52;;
54005;SDS011;39919;38.160;-122.260;2023-02-27T13:30:24;15.77;;;1.45;;
54005;SDS011;39919;38.160;-122.260;2023-02-27T13:32:58;8.32;;;0.60;;
54005;SDS011;39919;38.160;-122.260;2023-02-27T13:35:34;13.90;;;1.25;;
54005;SDS011;39919;38.160;-122.260;2023-02-27T13:53:19;5.95;;;1.08;;
54005;SDS011;39919;38.160;-122.260;2023-02-27T13:55:51;15.57;;;0.82;;
54005;SDS011;39919;38.160;-122.260;2023-02-27T13:58:24;16.95;;;0.70;;
54005;SDS011;39919;38.160;-122.260;2023-02-27T14:00:55;13.43;;;1.55;;
54005;SDS011;39919;38.160;-122.260;2023-02-27T14:03:27;10.15;;;1.08;;
54005;SDS011;39919;38.160;-122.260;2023-02-27T14:06:02;12.20;;;1.35;;
54005;SDS011;39919;38.160;-122.260;2023-02-27T14:08:35;14.27;;;1.02;;
54005;SDS011;39919;38.160;-122.260;2023-02-27T14:11:19;10.68;;;1.00;;
54005;SDS011;39919;38.160;-122.260;2023-02-27T14:14:04;14.35;;;1.15;;
54005;SDS011;39919;38.160;-122.260;2023-02-27T14:19:36;8.23;;;0.90;;
54005;SDS011;39919;38.160;-122.260;2023-02-27T14:22:35;10.38;;;0.90;;
54005;SDS011;39919;38.160;-122.260;2023-02-27T14:25:23;15.60;;;1.52;;
54005;SDS011;39919;38.160;-122.260;2023-02-27T14:27:58;20.50;;;1.65;;
54005;SDS011;39919;38.160;-122.260;2023-02-27T14:30:36;10.23;;;1.38;;
54005;SDS011;39919;38.160;-122.260;2023-02-27T14:33:18;13.13;;;1.42;;
54005;SDS011;39919;38.160;-122.260;2023-02-27T14:36:03;13.20;;;1.27;;
54005;SDS011;39919;38.160;-122.260;2023-02-27T14:38:36;11.52;;;0.90;;
54005;SDS011;39919;38.160;-122.260;2023-02-27T14:41:12;15.75;;;1.30;;
54005;SDS011;39919;38.160;-122.260;2023-02-27T14:43:54;9.07;;;1.00;;
54005;SDS011;39919;38.160;-122.260;2023-02-27T14:46:25;14.00;;;1.67;;
54005;SDS011;39919;38.160;-122.260;2023-02-27T14:48:57;13.85;;;0.90;;
54005;SDS011;39919;38.160;-122.260;2023-02-27T14:51:29;15.23;;;1.25;;
54005;SDS011;39919;38.160;-122.260;2023-02-27T14:54:05;17.73;;;1.08;;
54005;SDS011;39919;38.160;-122.260;2023-02-27T14:56:39;12.55;;;0.65;;
54005;SDS011;39919;38.160;-122.260;2023-02-27T14:59:22;9.75;;;1.27;;
54005;SDS011;39919;38.160;-122.260;2023-02-27T15:01:52;9.82;;;0.77;;
54005;SDS011;39919;38.160;-122.260;2023-02-27T15:04:24;17.25;;;1.42;;
54005;SDS011;39919;38.160;-122.260;2023-02-27T15:06:55;8.93;;;0.93;;
54005;SDS011;39919;38.160;-122.260;2023-02-27T15:09:29;18.90;;;1.25;;
54005;SDS011;39919;38.160;-122.260;2023-02-27T15:12:02;15.80;;;1.13;;
54005;SDS011;39919;38.160;-122.260;2023-02-27T15:14:32;19.08;;;2.05;;
54005;SDS011;39919;38.160;-122.260;2023-02-27T15:17:12;23.85;;;1.08;;
54005;SDS011;39919;38.160;-122.260;2023-02-27T15:19:47;7.57;;;0.68;;
54005;SDS011;39919;38.160;-122.260;2023-02-27T15:22:18;13.07;;;0.98;;